Time;durP1;ratioP1;P1;durP2;ratioP2;P2;SDS_P1;SDS_P2;PMS_P1;PMS_P2;Temp;Humidity;BMP_temperature;BMP_pressure;BME280_temperature;BME280_humidity;BME280_pressure;Samples;Min_cycle;Max_cycle;Signal;HPM_P1;HPM_P2
2021/06/19 00:00:11;;;;;;;8.75;4.40;;;;;;;;;;5075663;28;20059;-68
2021/06/19 00:02:37;;;;;;;9.98;4.90;;;;;;;;;;5074203;28;20027;-68
2021/06/19 00:05:03;;;;;;;5.85;4.30;;;;;;;;;;5075512;28;20038;-68
2021/06/19 00:07:30;;;;;;;7.28;4.25;;;;;;;;;;5075604;28;20017;-67
2021/06/19 00:09:56;;;;;;;5.07;4.03;;;;;;;;;;5075656;28;20024;-67
2021/06/19 00:12:22;;;;;;;10.05;5.07;;;;;;;;;;5074932;28;20052;-77
2021/06/19 00:14:48;;;;;;;7.70;4.57;;;;;;;;;;5075612;28;20064;-76
2021/06/19 00:17:14;;;;;;;7.57;4.22;;;;;;;;;;5075599;28;20021;-77
2021/06/19 00:19:40;;;;;;;6.10;4.18;;;;;;;;;;5075529;28;20033;-76
2021/06/19 00:22:06;;;;;;;8.25;4.35;;;;;;;;;;5075260;28;20044;-77
2021/06/19 00:24:39;;;;;;;8.25;4.70;;;;;;;;;;5072456;28;20033;-71
2021/06/19 00:27:05;;;;;;;8.13;4.70;;;;;;;;;;5072224;28;20033;-74
2021/06/19 00:29:32;;;;;;;8.52;4.57;;;;;;;;;;5073961;28;20025;-67
2021/06/19 00:31:58;;;;;;;9.00;4.18;;;;;;;;;;5075083;28;20022;-68
2021/06/19 00:34:24;;;;;;;7.85;4.10;;;;;;;;;;5075164;28;20090;-67
2021/06/19 00:36:51;;;;;;;6.15;4.43;;;;;;;;;;5074962;28;20027;-67
2021/06/19 00:39:17;;;;;;;7.82;4.38;;;;;;;;;;5074492;28;20052;-67
2021/06/19 00:41:43;;;;;;;15.10;4.93;;;;;;;;;;5074837;28;20086;-67
2021/06/19 00:44:19;;;;;;;5.05;4.07;;;;;;;;;;5074844;28;20016;-67
2021/06/19 00:46:49;;;;;;;7.38;4.00;;;;;;;;;;5075062;28;20063;-67
2021/06/19 00:49:15;;;;;;;9.35;4.47;;;;;;;;;;5074836;28;20021;-68
2021/06/19 00:51:41;;;;;;;6.32;4.60;;;;;;;;;;5075117;28;20366;-67
2021/06/19 00:54:07;;;;;;;12.48;4.40;;;;;;;;;;5074826;28;20016;-68
2021/06/19 00:56:36;;;;;;;12.95;4.57;;;;;;;;;;5074634;28;20418;-68
2021/06/19 00:59:03;;;;;;;8.45;4.45;;;;;;;;;;5072297;28;20024;-68
2021/06/19 01:01:29;;;;;;;7.45;4.63;;;;;;;;;;5071707;28;20033;-67
2021/06/19 01:03:55;;;;;;;7.60;4.18;;;;;;;;;;5071802;28;20025;-67
2021/06/19 01:06:22;;;;;;;9.63;4.25;;;;;;;;;;5074176;28;20039;-67
2021/06/19 01:08:48;;;;;;;8.45;4.30;;;;;;;;;;5074485;28;20017;-67
2021/06/19 01:11:14;;;;;;;11.07;4.43;;;;;;;;;;5074376;28;20074;-77
2021/06/19 01:13:40;;;;;;;5.93;3.92;;;;;;;;;;5073866;28;20025;-69
2021/06/19 01:16:06;;;;;;;5.00;3.92;;;;;;;;;;5074351;28;20465;-67
2021/06/19 01:18:32;;;;;;;8.93;4.32;;;;;;;;;;5074058;28;20111;-67
2021/06/19 01:20:58;;;;;;;6.28;3.97;;;;;;;;;;5073613;28;20041;-75
2021/06/19 01:23:24;;;;;;;6.55;4.07;;;;;;;;;;5073570;28;20055;-74
2021/06/19 01:25:50;;;;;;;6.22;3.95;;;;;;;;;;5073649;28;20132;-77
2021/06/19 01:28:16;;;;;;;7.03;4.72;;;;;;;;;;5073459;28;20020;-68
2021/06/19 01:30:42;;;;;;;10.50;4.55;;;;;;;;;;5073642;28;20025;-68
2021/06/19 01:33:08;;;;;;;8.63;4.20;;;;;;;;;;5073669;28;20013;-68
2021/06/19 01:35:36;;;;;;;12.73;5.15;;;;;;;;;;5073569;28;20029;-67
2021/06/19 01:38:02;;;;;;;11.02;4.93;;;;;;;;;;5073649;28;20381;-67
2021/06/19 01:40:29;;;;;;;7.93;4.95;;;;;;;;;;5073142;28;20053;-67
2021/06/19 01:42:56;;;;;;;10.57;5.30;;;;;;;;;;5073429;28;20025;-67
2021/06/19 01:45:24;;;;;;;11.30;4.93;;;;;;;;;;5073626;28;20028;-73
2021/06/19 01:47:51;;;;;;;6.68;4.65;;;;;;;;;;5073897;28;20025;-77
2021/06/19 01:50:19;;;;;;;8.82;4.75;;;;;;;;;;5073456;28;20108;-77
2021/06/19 01:52:45;;;;;;;6.90;4.93;;;;;;;;;;5073844;28;20488;-75
2021/06/19 01:55:11;;;;;;;7.45;4.82;;;;;;;;;;5073624;28;20078;-68
2021/06/19 01:57:38;;;;;;;5.50;4.43;;;;;;;;;;5073643;28;20066;-77
2021/06/19 02:00:05;;;;;;;10.60;4.20;;;;;;;;;;5073256;28;20123;-67
2021/06/19 02:02:31;;;;;;;6.55;4.60;;;;;;;;;;5073621;28;20017;-67
2021/06/19 02:04:57;;;;;;;10.65;4.53;;;;;;;;;;5073468;28;20063;-67
2021/06/19 02:07:23;;;;;;;8.57;5.03;;;;;;;;;;5073301;28;20431;-67
2021/06/19 02:09:49;;;;;;;7.43;4.95;;;;;;;;;;5073394;28;20461;-78
2021/06/19 02:12:17;;;;;;;12.98;4.63;;;;;;;;;;5073145;28;20389;-69
2021/06/19 02:14:43;;;;;;;8.88;4.65;;;;;;;;;;5073118;28;20013;-69
2021/06/19 02:17:09;;;;;;;7.05;4.80;;;;;;;;;;5073296;28;20020;-68
2021/06/19 02:19:36;;;;;;;6.97;4.40;;;;;;;;;;5073368;28;20465;-68
2021/06/19 02:22:02;;;;;;;7.22;4.88;;;;;;;;;;5073237;28;20035;-69
2021/06/19 02:24:28;;;;;;;12.32;4.82;;;;;;;;;;5071952;28;20024;-69
2021/06/19 02:27:07;;;;;;;9.70;4.78;;;;;;;;;;5073188;28;20059;-69
2021/06/19 02:29:33;;;;;;;13.73;4.75;;;;;;;;;;5072989;28;20122;-74
2021/06/19 02:31:59;;;;;;;5.55;4.68;;;;;;;;;;5073188;28;20496;-78
2021/06/19 02:34:25;;;;;;;12.48;4.55;;;;;;;;;;5073210;28;20021;-70
2021/06/19 02:36:51;;;;;;;8.27;4.82;;;;;;;;;;5073039;28;20036;-68
2021/06/19 02:39:19;;;;;;;10.05;4.72;;;;;;;;;;5072843;28;20041;-68
2021/06/19 02:41:45;;;;;;;4.70;4.10;;;;;;;;;;5073071;28;20082;-71
2021/06/19 02:44:11;;;;;;;8.95;4.68;;;;;;;;;;5072872;28;20021;-78
2021/06/19 02:46:37;;;;;;;6.13;4.30;;;;;;;;;;5073093;28;20108;-78
2021/06/19 02:49:03;;;;;;;10.32;4.70;;;;;;;;;;5072986;28;20096;-78
2021/06/19 02:51:29;;;;;;;6.20;4.60;;;;;;;;;;5072934;28;20028;-69
2021/06/19 02:53:55;;;;;;;10.52;4.93;;;;;;;;;;5073011;28;20031;-69
2021/06/19 02:56:21;;;;;;;13.68;5.03;;;;;;;;;;5072959;28;20461;-69
2021/06/19 02:58:47;;;;;;;9.57;4.60;;;;;;;;;;5072923;28;20507;-69
2021/06/19 03:01:13;;;;;;;8.27;4.63;;;;;;;;;;5072773;28;20041;-68
2021/06/19 03:03:39;;;;;;;5.40;4.50;;;;;;;;;;5072895;28;20020;-69
2021/06/19 03:06:05;;;;;;;6.35;4.30;;;;;;;;;;5072826;28;20035;-78
2021/06/19 03:08:31;;;;;;;9.00;4.50;;;;;;;;;;5072666;28;20021;-69
2021/06/19 03:10:57;;;;;;;5.55;4.43;;;;;;;;;;5072725;28;20067;-69
2021/06/19 03:13:23;;;;;;;9.77;4.35;;;;;;;;;;5072887;28;20082;-68
2021/06/19 03:15:50;;;;;;;9.13;4.43;;;;;;;;;;5072968;28;20166;-69
2021/06/19 03:18:16;;;;;;;7.97;4.20;;;;;;;;;;5072502;28;20021;-68
2021/06/19 03:20:42;;;;;;;6.30;4.90;;;;;;;;;;5072438;28;20107;-69
2021/06/19 03:23:08;;;;;;;5.75;4.57;;;;;;;;;;5072331;28;20028;-69
2021/06/19 03:25:36;;;;;;;10.63;5.32;;;;;;;;;;5072429;28;20036;-69
2021/06/19 03:28:03;;;;;;;10.98;4.57;;;;;;;;;;5072416;28;20016;-69
2021/06/19 03:30:30;;;;;;;8.50;4.78;;;;;;;;;;5072132;28;20029;-69
2021/06/19 03:32:56;;;;;;;10.13;5.05;;;;;;;;;;5072558;28;20017;-69
2021/06/19 03:35:22;;;;;;;18.25;4.93;;;;;;;;;;5072312;28;20032;-69
2021/06/19 03:37:49;;;;;;;13.68;5.50;;;;;;;;;;5071205;28;20031;-69
2021/06/19 03:40:16;;;;;;;14.13;5.03;;;;;;;;;;5072025;28;20485;-68
2021/06/19 03:42:42;;;;;;;6.85;5.10;;;;;;;;;;5071258;28;20376;-69
2021/06/19 03:45:09;;;;;;;9.50;5.05;;;;;;;;;;5072397;28;20484;-69
2021/06/19 03:47:35;;;;;;;9.00;4.72;;;;;;;;;;5073679;28;20028;-69
2021/06/19 03:50:01;;;;;;;7.35;5.03;;;;;;;;;;5075982;28;20139;-69
2021/06/19 03:52:27;;;;;;;7.28;4.65;;;;;;;;;;5075864;28;20112;-69
2021/06/19 03:54:53;;;;;;;11.23;5.10;;;;;;;;;;5075708;28;20027;-68
2021/06/19 03:57:23;;;;;;;9.57;4.30;;;;;;;;;;5076022;28;20020;-69
2021/06/19 03:59:49;;;;;;;6.68;4.63;;;;;;;;;;5075740;28;20024;-69
2021/06/19 04:02:16;;;;;;;5.63;4.90;;;;;;;;;;5075915;28;20059;-69
2021/06/19 04:04:42;;;;;;;7.55;5.40;;;;;;;;;;5075615;28;20032;-69
2021/06/19 04:07:08;;;;;;;8.30;5.43;;;;;;;;;;5075950;28;20681;-69
2021/06/19 04:09:34;;;;;;;9.60;5.07;;;;;;;;;;5075410;28;20046;-77
2021/06/19 04:12:00;;;;;;;11.77;4.70;;;;;;;;;;5075452;28;20020;-69
2021/06/19 04:14:26;;;;;;;9.68;4.88;;;;;;;;;;5075483;28;20393;-69
2021/06/19 04:16:52;;;;;;;8.80;5.00;;;;;;;;;;5074101;28;20377;-77
2021/06/19 04:19:18;;;;;;;7.03;4.90;;;;;;;;;;5075327;28;20028;-78
2021/06/19 04:21:44;;;;;;;6.82;4.75;;;;;;;;;;5075104;28;20039;-68
2021/06/19 04:24:10;;;;;;;11.68;5.20;;;;;;;;;;5075568;28;20051;-69
2021/06/19 04:26:36;;;;;;;6.68;4.50;;;;;;;;;;5075219;28;20082;-69
2021/06/19 04:29:02;;;;;;;7.18;5.32;;;;;;;;;;5074679;28;20024;-69
2021/06/19 04:31:31;;;;;;;8.02;5.13;;;;;;;;;;5075000;28;20044;-69
2021/06/19 04:33:58;;;;;;;6.88;5.00;;;;;;;;;;5075174;28;20035;-69
2021/06/19 04:36:24;;;;;;;10.23;5.30;;;;;;;;;;5073853;28;20441;-76
2021/06/19 04:38:50;;;;;;;7.88;5.28;;;;;;;;;;5074558;28;20029;-69
2021/06/19 04:46:17;;;;;;;13.23;5.35;;;;;;;;;;5074889;28;20024;-69
2021/06/19 04:48:43;;;;;;;8.00;4.75;;;;;;;;;;5074750;28;20073;-74
2021/06/19 04:51:09;;;;;;;13.40;6.13;;;;;;;;;;5074879;28;20062;-68
2021/06/19 04:53:35;;;;;;;18.00;5.80;;;;;;;;;;5075130;28;20035;-68
2021/06/19 04:56:02;;;;;;;12.15;5.28;;;;;;;;;;5074584;28;20107;-69
2021/06/19 04:58:28;;;;;;;19.75;5.40;;;;;;;;;;5074873;28;20031;-69
2021/06/19 05:00:54;;;;;;;8.18;4.60;;;;;;;;;;5074578;28;20090;-69
2021/06/19 05:03:22;;;;;;;17.55;5.07;;;;;;;;;;5074230;28;20492;-72
2021/06/19 05:05:50;;;;;;;16.48;5.00;;;;;;;;;;5074319;28;20035;-81
2021/06/19 05:08:17;;;;;;;11.13;4.93;;;;;;;;;;5074478;28;20040;-72
2021/06/19 05:10:43;;;;;;;13.93;5.10;;;;;;;;;;5074505;28;20381;-72
2021/06/19 05:13:09;;;;;;;7.97;5.28;;;;;;;;;;5074313;28;20028;-72
2021/06/19 05:15:35;;;;;;;8.20;5.78;;;;;;;;;;5074165;28;20031;-72
2021/06/19 05:18:01;;;;;;;9.98;5.38;;;;;;;;;;5074407;28;20079;-79
2021/06/19 05:20:29;;;;;;;13.23;5.55;;;;;;;;;;5074203;28;20036;-72
2021/06/19 05:22:58;;;;;;;10.20;5.47;;;;;;;;;;5074113;28;20111;-72
2021/06/19 05:25:24;;;;;;;12.75;5.75;;;;;;;;;;5073900;28;20028;-72
2021/06/19 05:27:50;;;;;;;11.20;6.13;;;;;;;;;;5074102;28;20017;-72
2021/06/19 05:30:17;;;;;;;9.25;5.65;;;;;;;;;;5074007;28;20028;-71
2021/06/19 05:32:43;;;;;;;8.13;5.15;;;;;;;;;;5073866;28;20062;-72
2021/06/19 05:35:10;;;;;;;7.25;5.40;;;;;;;;;;5073742;28;20024;-72
2021/06/19 05:37:36;;;;;;;9.05;5.45;;;;;;;;;;5073972;28;20029;-71
2021/06/19 05:40:03;;;;;;;8.93;5.18;;;;;;;;;;5073487;28;20045;-71
2021/06/19 05:42:29;;;;;;;6.20;5.38;;;;;;;;;;5074006;28;20028;-72
2021/06/19 05:44:55;;;;;;;8.15;5.50;;;;;;;;;;5073429;28;20024;-71
2021/06/19 05:47:21;;;;;;;7.90;5.25;;;;;;;;;;5073729;28;20035;-72
2021/06/19 05:49:47;;;;;;;6.43;5.10;;;;;;;;;;5073264;28;20048;-72
2021/06/19 05:52:13;;;;;;;8.20;5.18;;;;;;;;;;5073562;28;20480;-72
2021/06/19 05:54:40;;;;;;;11.80;5.78;;;;;;;;;;5073561;28;20059;-72
2021/06/19 05:57:06;;;;;;;8.55;5.32;;;;;;;;;;5073368;28;20431;-71
2021/06/19 05:59:32;;;;;;;10.45;5.00;;;;;;;;;;5073160;28;20024;-72
2021/06/19 06:01:59;;;;;;;12.00;5.30;;;;;;;;;;5072297;28;20024;-72
2021/06/19 06:04:25;;;;;;;8.20;5.10;;;;;;;;;;5073639;28;20542;-72
2021/06/19 06:06:51;;;;;;;12.15;5.32;;;;;;;;;;5073171;28;20090;-71
2021/06/19 06:09:17;;;;;;;9.50;4.80;;;;;;;;;;5073353;28;20026;-71
2021/06/19 06:11:43;;;;;;;8.82;4.53;;;;;;;;;;5073256;28;20104;-71
2021/06/19 06:14:10;;;;;;;11.73;5.00;;;;;;;;;;5073964;28;20025;-76
2021/06/19 06:16:36;;;;;;;7.90;5.40;;;;;;;;;;5072392;28;20016;-72
2021/06/19 06:19:02;;;;;;;8.18;4.88;;;;;;;;;;5073140;28;20052;-71
2021/06/19 06:21:28;;;;;;;11.98;4.57;;;;;;;;;;5073051;28;20370;-72
2021/06/19 06:23:54;;;;;;;8.00;4.82;;;;;;;;;;5073207;28;20028;-72
2021/06/19 06:26:20;;;;;;;6.25;5.00;;;;;;;;;;5073028;28;20362;-71
2021/06/19 06:28:47;;;;;;;6.30;4.90;;;;;;;;;;5072990;28;20029;-71
2021/06/19 06:31:13;;;;;;;5.70;4.45;;;;;;;;;;5073246;28;20051;-73
2021/06/19 06:33:39;;;;;;;7.00;4.72;;;;;;;;;;5073270;28;20028;-72
2021/06/19 06:36:05;;;;;;;5.57;4.65;;;;;;;;;;5072944;28;20039;-72
2021/06/19 06:38:31;;;;;;;8.73;4.60;;;;;;;;;;5073248;28;20476;-72
2021/06/19 06:40:57;;;;;;;6.50;4.78;;;;;;;;;;5072841;28;20052;-71
2021/06/19 06:43:23;;;;;;;7.03;4.88;;;;;;;;;;5071679;28;20380;-72
2021/06/19 06:45:49;;;;;;;10.50;4.65;;;;;;;;;;5072869;28;20033;-72
2021/06/19 06:48:16;;;;;;;5.22;4.30;;;;;;;;;;5073223;28;20027;-81
2021/06/19 06:50:42;;;;;;;6.63;4.93;;;;;;;;;;5072878;28;20389;-74
2021/06/19 06:53:08;;;;;;;6.18;4.78;;;;;;;;;;5072747;28;20032;-75
2021/06/19 06:55:34;;;;;;;5.70;4.47;;;;;;;;;;5072959;28;20114;-75
2021/06/19 06:58:00;;;;;;;9.35;5.20;;;;;;;;;;5072867;28;20400;-73
2021/06/19 07:00:26;;;;;;;7.93;4.55;;;;;;;;;;5072972;28;20036;-75
2021/06/19 07:02:52;;;;;;;9.15;4.90;;;;;;;;;;5073281;28;20020;-77
2021/06/19 07:05:19;;;;;;;8.52;4.65;;;;;;;;;;5073109;28;20039;-78
2021/06/19 07:07:46;;;;;;;8.35;4.90;;;;;;;;;;5072679;28;20590;-78
2021/06/19 07:10:13;;;;;;;8.52;4.70;;;;;;;;;;5072662;28;20035;-72
2021/06/19 07:12:42;;;;;;;6.20;4.30;;;;;;;;;;5072228;28;20070;-72
2021/06/19 07:15:09;;;;;;;5.28;4.45;;;;;;;;;;5071204;28;20016;-73
2021/06/19 07:17:35;;;;;;;8.00;4.93;;;;;;;;;;5071023;28;20032;-72
2021/06/19 07:20:02;;;;;;;5.50;4.35;;;;;;;;;;5072290;28;20033;-72
2021/06/19 07:22:29;;;;;;;7.45;4.63;;;;;;;;;;5073666;28;20098;-72
2021/06/19 07:24:55;;;;;;;7.72;4.90;;;;;;;;;;5075626;28;20032;-72
2021/06/19 07:27:21;;;;;;;8.95;4.65;;;;;;;;;;5075536;28;20028;-72
2021/06/19 07:29:47;;;;;;;8.00;4.40;;;;;;;;;;5076153;28;20550;-72
2021/06/19 07:32:13;;;;;;;6.40;4.78;;;;;;;;;;5076348;28;20073;-72
2021/06/19 07:34:40;;;;;;;7.90;4.80;;;;;;;;;;5076464;28;20021;-71
2021/06/19 07:37:06;;;;;;;6.63;4.28;;;;;;;;;;5076444;28;20031;-72
2021/06/19 07:39:32;;;;;;;7.05;4.63;;;;;;;;;;5075983;28;20049;-72
2021/06/19 07:41:58;;;;;;;5.43;4.55;;;;;;;;;;5076140;28;20063;-72
2021/06/19 07:44:24;;;;;;;13.20;5.03;;;;;;;;;;5076284;28;20021;-72
2021/06/19 07:46:50;;;;;;;7.03;4.82;;;;;;;;;;5076269;28;20024;-72
2021/06/19 07:49:17;;;;;;;9.57;5.20;;;;;;;;;;5076169;28;20518;-72
2021/06/19 07:51:43;;;;;;;6.68;4.63;;;;;;;;;;5076052;28;20078;-72
2021/06/19 07:54:09;;;;;;;8.48;4.60;;;;;;;;;;5075959;28;20123;-72
2021/06/19 07:56:35;;;;;;;8.77;4.43;;;;;;;;;;5075892;28;20056;-72
2021/06/19 07:59:01;;;;;;;4.78;4.07;;;;;;;;;;5075690;28;20384;-72
2021/06/19 08:01:28;;;;;;;7.40;4.45;;;;;;;;;;5075655;28;20036;-72
2021/06/19 08:03:54;;;;;;;7.72;4.60;;;;;;;;;;5075817;28;20027;-72
2021/06/19 08:06:20;;;;;;;9.15;4.90;;;;;;;;;;5075641;28;20031;-72
2021/06/19 08:08:46;;;;;;;8.77;4.80;;;;;;;;;;5075540;28;20086;-72
2021/06/19 08:11:12;;;;;;;9.07;5.25;;;;;;;;;;5074234;28;20373;-72
2021/06/19 08:13:38;;;;;;;7.88;5.03;;;;;;;;;;5075642;28;20025;-72
2021/06/19 08:16:05;;;;;;;7.82;5.10;;;;;;;;;;5075689;28;20381;-73
2021/06/19 08:18:32;;;;;;;6.97;4.60;;;;;;;;;;5075533;28;20016;-72
2021/06/19 08:20:58;;;;;;;11.80;5.30;;;;;;;;;;5074908;28;20043;-72
2021/06/19 08:23:24;;;;;;;8.18;5.10;;;;;;;;;;5075425;28;20370;-72
2021/06/19 08:25:50;;;;;;;12.00;4.97;;;;;;;;;;5075430;28;20484;-72
2021/06/19 08:28:16;;;;;;;13.35;5.45;;;;;;;;;;5075487;28;20035;-72
2021/06/19 08:30:42;;;;;;;7.57;5.03;;;;;;;;;;5075333;28;20048;-72
2021/06/19 08:33:08;;;;;;;8.52;5.20;;;;;;;;;;5074955;28;20074;-72
2021/06/19 08:35:34;;;;;;;9.48;4.90;;;;;;;;;;5075055;28;20024;-72
2021/06/19 08:38:00;;;;;;;7.82;4.85;;;;;;;;;;5075479;28;20428;-78
2021/06/19 08:40:26;;;;;;;7.35;5.07;;;;;;;;;;5074662;28;20052;-72
2021/06/19 08:42:52;;;;;;;9.98;4.65;;;;;;;;;;5075198;28;20381;-72
2021/06/19 08:45:18;;;;;;;10.60;5.20;;;;;;;;;;5075223;28;20025;-72
2021/06/19 08:47:45;;;;;;;8.25;4.88;;;25.30;81.20;;;;;;5075043;28;20025;-72
2021/06/19 08:50:14;;;;;;;7.32;4.60;;;27.00;66.20;;;;;;5074819;28;20021;-72
2021/06/19 08:52:41;;;;;;;11.07;5.50;;;27.00;67.00;;;;;;5074956;28;20476;-72
2021/06/19 08:55:09;;;;;;;13.35;5.32;;;;;;;;;;5074657;28;20016;-72
2021/06/19 08:57:35;;;;;;;12.73;4.80;;;;;;;;;;5074858;28;20036;-72
2021/06/19 09:00:01;;;;;;;10.45;5.30;;;;;;;;;;5074718;28;20032;-72
2021/06/19 09:02:28;;;;;;;11.50;5.30;;;;;;;;;;5074768;28;20477;-70
2021/06/19 09:04:58;;;;;;;10.00;5.20;;;;;;;;;;5074671;28;20028;-69
2021/06/19 09:07:36;;;;;;;8.45;5.70;;;;;;;;;;5074687;28;20548;-73
2021/06/19 09:10:21;;;;;;;12.38;5.53;;;;;;;;;;5074759;28;20520;-70
2021/06/19 09:12:56;;;;;;;13.13;6.30;;;;;;;;;;5074887;28;20036;-70
2021/06/19 09:15:22;;;;;;;11.43;5.53;;;;;;;;;;5074287;28;20028;-70
2021/06/19 09:18:00;;;;;;;7.03;5.43;;;;;;;;;;5074533;28;20404;-70
2021/06/19 09:20:37;;;;;;;9.57;5.60;;;;;;;;;;5074405;28;20036;-70
2021/06/19 09:23:04;;;;;;;11.63;5.38;;;;;;;;;;5074370;28;20020;-70
2021/06/19 09:25:30;;;;;;;9.13;5.55;;;;;;;;;;5074210;28;20032;-70
2021/06/19 09:27:57;;;;;;;9.88;5.82;;;;;;;;;;5074122;28;20020;-70
2021/06/19 09:30:23;;;;;;;7.90;5.93;;;;;;;;;;5074318;28;20030;-70
2021/06/19 09:33:02;;;;;;;10.57;5.90;;;28.00;72.50;;;;;;5074482;28;20020;-70
2021/06/19 09:35:29;;;;;;;11.50;6.40;;;;;;;;;;5074314;28;20097;-70
2021/06/19 09:37:56;;;;;;;12.30;6.43;;;;;;;;;;5074148;28;20025;-70
2021/06/19 09:40:24;;;;;;;11.80;6.00;;;;;;;;;;5073721;28;20048;-70
2021/06/19 09:42:50;;;;;;;10.85;6.05;;;;;;;;;;5074179;28;20017;-70
2021/06/19 09:45:23;;;;;;;8.75;5.75;;;;;;;;;;5073311;28;20032;-70
2021/06/19 09:47:50;;;;;;;14.48;6.20;;;;;;;;;;5073931;28;20070;-70
2021/06/19 09:50:20;;;;;;;13.30;6.43;;;;;;;;;;5073658;28;20025;-70
2021/06/19 09:52:46;;;;;;;12.88;7.05;;;;;;;;;;5073710;28;20070;-70
2021/06/19 09:55:14;;;;;;;8.88;6.32;;;;;;;;;;5073870;28;20040;-70
2021/06/19 09:57:41;;;;;;;8.57;5.95;;;;;;;;;;5073928;28;20461;-70
2021/06/19 10:00:19;;;;;;;8.82;5.60;;;28.30;73.10;;;;;;5073349;28;20393;-70
2021/06/19 10:02:45;;;;;;;12.00;6.30;;;28.20;57.50;;;;;;5073692;28;20108;-70
2021/06/19 10:05:12;;;;;;;9.82;6.28;;;28.50;58.20;;;;;;5073735;28;20043;-70
2021/06/19 10:07:39;;;;;;;9.70;5.43;;;;;;;;;;5073724;28;20025;-70
2021/06/19 10:10:06;;;;;;;7.53;5.65;;;;;;;;;;5072224;28;20025;-70
2021/06/19 10:12:33;;;;;;;7.25;5.75;;;;;;;;;;5073690;28;20037;-70
2021/06/19 10:15:07;;;;;;;7.88;6.05;;;28.50;58.20;;;;;;5073894;28;20016;-70
2021/06/19 10:17:38;;;;;;;13.43;6.10;;;28.70;57.70;;;;;;5073643;28;20550;-70
2021/06/19 10:20:16;;;;;;;8.25;6.07;;;28.70;57.60;;;;;;5073106;28;20024;-71
2021/06/19 10:22:42;;;;;;;10.32;5.97;;;;;;;;;;5073231;28;20052;-70
2021/06/19 10:25:10;;;;;;;12.73;5.72;;;28.80;56.90;;;;;;5073279;28;20036;-70
2021/06/19 10:27:42;;;;;;;13.75;6.50;;;28.90;57.50;;;;;;5073540;28;20107;-70
2021/06/19 10:30:08;;;;;;;11.15;5.72;;;;;;;;;;5073165;28;20020;-70
2021/06/19 10:32:37;;;;;;;15.13;6.28;;;;;;;;;;5073198;28;20043;-70
2021/06/19 10:35:04;;;;;;;7.60;5.95;;;;;;;;;;5073074;28;20052;-71
2021/06/19 10:37:31;;;;;;;8.30;6.50;;;;;;;;;;5073239;28;20032;-70
2021/06/19 10:39:57;;;;;;;8.32;5.78;;;;;;;;;;5073231;28;20051;-70
2021/06/19 10:42:26;;;;;;;11.45;6.43;;;;;;;;;;5073351;28;20033;-70
2021/06/19 10:44:53;;;;;;;8.65;5.53;;;29.00;57.00;;;;;;5073348;28;20021;-71
2021/06/19 10:47:21;;;;;;;8.13;6.07;;;29.20;57.80;;;;;;5073218;28;20028;-70
2021/06/19 10:49:47;;;;;;;10.60;5.75;;;29.20;57.60;;;;;;5072897;28;20423;-70
2021/06/19 10:52:29;;;;;;;9.75;6.15;;;;;;;;;;5073083;28;20020;-70
2021/06/19 10:55:10;;;;;;;10.88;6.32;;;29.30;57.50;;;;;;5073060;28;20107;-70
2021/06/19 10:57:46;;;;;;;5.90;5.30;;;;;;;;;;5074820;28;20098;-69
2021/06/19 11:00:25;;;;;;;8.02;5.97;;;;;;;;;;5077316;28;20062;-70
2021/06/19 11:02:52;;;;;;;8.02;5.85;;;29.40;57.20;;;;;;5076920;28;20028;-75
2021/06/19 11:05:39;;;;;;;10.95;6.28;;;29.60;57.90;;;;;;5077102;28;20029;-71
2021/06/19 11:08:05;;;;;;;9.18;5.97;;;;;;;;;;5077040;28;20078;-70
2021/06/19 11:10:58;;;;;;;9.57;5.78;;;;;;;;;;5077169;28;20416;-70
2021/06/19 11:13:34;;;;;;;9.07;6.30;;;;;;;;;;5074841;28;20374;-70
2021/06/19 11:16:07;;;;;;;8.52;6.45;;;;;;;;;;5076670;28;20041;-70
2021/06/19 11:18:50;;;;;;;10.13;5.95;;;;;;;;;;5076893;28;20025;-70
2021/06/19 11:21:17;;;;;;;15.52;6.53;;;;;;;;;;5076785;28;20037;-71
2021/06/19 11:24:13;;;;;;;12.25;6.25;;;;;;;;;;5077002;28;20024;-71
2021/06/19 11:27:01;;;;;;;9.25;5.63;;;;;;;;;;5067716;28;20040;-71
2021/06/19 11:29:42;;;;;;;13.02;6.25;;;;;;;;;;5076431;28;20032;-72
2021/06/19 11:32:27;;;;;;;11.93;6.32;;;;;;;;;;5076792;28;20024;-71
2021/06/19 11:34:54;;;;;;;14.15;6.30;;;;;;;;;;5074610;28;20070;-72
2021/06/19 11:37:20;;;;;;;9.63;6.72;;;;;;;;;;5075227;28;20052;-72
2021/06/19 11:39:46;;;;;;;8.75;6.30;;;;;;;;;;5075267;28;20052;-72
2021/06/19 11:42:12;;;;;;;11.95;6.43;;;;;;;;;;5072459;28;20044;-72
2021/06/19 11:44:43;;;;;;;8.68;5.90;;;;;;;;;;5072706;28;20036;-72
2021/06/19 11:47:09;;;;;;;8.32;6.10;;;;;;;;;;5072458;28;20032;-72
2021/06/19 11:49:37;;;;;;;12.60;6.13;;;;;;;;;;5074954;28;20067;-73
2021/06/19 11:52:04;;;;;;;11.02;5.70;;;;;;;;;;5075219;28;20027;-72
2021/06/19 11:54:30;;;;;;;14.52;5.70;;;;;;;;;;5075511;28;20024;-72
2021/06/19 11:56:56;;;;;;;13.30;5.43;;;;;;;;;;5072661;28;20036;-72
2021/06/19 11:59:23;;;;;;;8.73;6.30;;;;;;;;;;5071920;28;20785;-71
2021/06/19 12:01:50;;;;;;;13.02;6.22;;;;;;;;;;5072796;28;20041;-72
2021/06/19 12:04:16;;;;;;;12.70;5.80;;;;;;;;;;5075451;28;20025;-71
2021/06/19 12:06:58;;;;;;;7.03;5.53;;;;;;;;;;5076077;28;20051;-71
2021/06/19 12:09:26;;;;;;;10.63;6.00;;;;;;;;;;5074009;28;20485;-71
2021/06/19 12:11:54;;;;;;;12.32;6.13;;;;;;;;;;5074013;28;20112;-71
2021/06/19 12:14:20;;;;;;;7.18;5.63;;;;;;;;;;5075295;28;20028;-71
2021/06/19 12:16:50;;;;;;;10.13;5.35;;;;;;;;;;5074313;28;20024;-72
2021/06/19 12:19:17;;;;;;;6.38;5.13;;;;;;;;;;5074702;28;20021;-71
2021/06/19 12:21:44;;;;;;;8.50;5.57;;;;;;;;;;5074927;28;20041;-71
2021/06/19 12:24:30;;;;;;;10.90;5.38;;;;;;;;;;5074718;28;20016;-72
2021/06/19 12:27:00;;;;;;;8.68;5.03;;;;;;;;;;5074970;28;20024;-71
2021/06/19 12:29:30;;;;;;;9.88;5.38;;;;;;;;;;5074987;28;20025;-71
2021/06/19 12:31:56;;;;;;;8.82;5.30;;;;;;;;;;5075217;28;20017;-71
2021/06/19 12:34:25;;;;;;;10.32;5.25;;;;;;;;;;5074356;28;20100;-71
2021/06/19 12:36:52;;;;;;;8.88;4.95;;;;;;;;;;5074676;28;20392;-71
2021/06/19 12:39:20;;;;;;;6.95;4.82;;;;;;;;;;5073314;28;20071;-71
2021/06/19 12:41:46;;;;;;;8.88;5.20;;;;;;;;;;5073915;28;20032;-71
2021/06/19 12:44:12;;;;;;;9.38;5.40;;;;;;;;;;5074416;28;20020;-71
2021/06/19 12:46:38;;;;;;;12.80;4.95;;;;;;;;;;5074827;28;20078;-71
2021/06/19 12:49:05;;;;;;;8.07;5.10;;;;;;;;;;5074444;28;20081;-72
2021/06/19 12:51:35;;;;;;;9.43;5.30;;;;;;;;;;5074684;28;20516;-72
2021/06/19 12:54:17;;;;;;;9.25;5.25;;;;;;;;;;5074650;28;20033;-71
2021/06/19 12:56:57;;;;;;;10.57;4.93;;;;;;;;;;5074443;28;20448;-71
2021/06/19 12:59:24;;;;;;;9.18;5.18;;;;;;;;;;5074792;28;20032;-71
2021/06/19 13:02:08;;;;;;;8.32;5.30;;;;;;;;;;5074635;28;20040;-71
2021/06/19 13:04:36;;;;;;;9.32;5.20;;;;;;;;;;5073986;28;20041;-71
2021/06/19 13:07:03;;;;;;;12.10;5.75;;;;;;;;;;5073428;28;20362;-71
2021/06/19 13:09:46;;;;;;;11.15;4.97;;;;;;;;;;5074005;28;20055;-71
2021/06/19 13:12:12;;;;;;;10.30;4.97;;;;;;;;;;5074045;28;20479;-71
2021/06/19 13:14:38;;;;;;;13.45;5.10;;;;;;;;;;5074358;28;20032;-71
2021/06/19 13:17:14;;;;;;;10.65;5.10;;;;;;;;;;5073436;28;20099;-72
2021/06/19 13:19:41;;;;;;;8.82;5.03;;;;;;;;;;5069511;28;20036;-72
2021/06/19 13:22:07;;;;;;;7.40;5.00;;;;;;;;;;5071198;28;20119;-72
2021/06/19 13:24:34;;;;;;;10.35;6.28;;;;;;;;;;5071670;28;20549;-71
2021/06/19 13:27:16;;;;;;;7.45;5.07;;;;;;;;;;5073770;28;20031;-75
2021/06/19 13:29:43;;;;;;;10.75;5.50;;;;;;;;;;5072828;28;20060;-71
2021/06/19 13:32:10;;;;;;;11.82;5.72;;;;;;;;;;5071331;28;20033;-71
2021/06/19 13:34:38;;;;;;;10.18;5.15;;;;;;;;;;5071691;28;20028;-80
2021/06/19 13:37:09;;;;;;;8.48;5.63;;;;;;;;;;5070974;28;20028;-70
2021/06/19 13:39:39;;;;;;;11.13;5.18;;;;;;;;;;5071322;28;20036;-70
2021/06/19 13:42:11;;;;;;;10.52;5.13;;;;;;;;;;5071997;28;20028;-71
2021/06/19 13:44:41;;;;;;;10.18;5.00;;;;;;;;;;5072212;28;20016;-70
2021/06/19 13:47:08;;;;;;;10.73;5.25;;;;;;;;;;5072009;28;20024;-70
2021/06/19 13:49:34;;;;;;;7.47;4.97;;;;;;;;;;5071900;28;20060;-70
2021/06/19 13:52:02;;;;;;;10.68;4.63;;;;;;;;;;5071717;28;20107;-70
2021/06/19 13:54:29;;;;;;;7.72;4.85;;;;;;;;;;5072588;28;20039;-69
2021/06/19 13:56:56;;;;;;;6.80;4.80;;;;;;;;;;5072742;28;20081;-70
2021/06/19 13:59:22;;;;;;;9.52;4.80;;;;;;;;;;5071766;28;20032;-70
2021/06/19 14:01:49;;;;;;;6.72;4.70;;;;;;;;;;5072575;28;20146;-71
2021/06/19 14:04:15;;;;;;;7.28;4.63;;;;;;;;;;5072654;28;20105;-71
2021/06/19 14:06:42;;;;;;;8.57;5.00;;;;;;;;;;5071977;28;20047;-71
2021/06/19 14:09:09;;;;;;;6.20;4.97;;;;;;;;;;5072085;28;20524;-71
2021/06/19 14:11:36;;;;;;;10.18;4.93;;;;;;;;;;5072790;28;20368;-71
2021/06/19 14:14:02;;;;;;;10.23;4.78;;;;;;;;;;5072726;28;20032;-71
2021/06/19 14:16:28;;;;;;;10.80;5.43;;;;;;;;;;5072249;28;20528;-71
2021/06/19 14:18:55;;;;;;;8.43;5.00;;;;;;;;;;5072458;28;20025;-71
2021/06/19 14:21:22;;;;;;;8.07;5.00;;;;;;;;;;5072080;28;20032;-73
2021/06/19 14:23:48;;;;;;;5.30;4.47;;;;;;;;;;5071072;28;20073;-72
2021/06/19 14:26:17;;;;;;;12.32;4.90;;;;;;;;;;5073758;28;20024;-82
2021/06/19 14:28:44;;;;;;;9.20;4.57;;;;;;;;;;5073128;28;20017;-72
2021/06/19 14:31:11;;;;;;;8.60;4.82;;;;;;;;;;5072758;28;20499;-80
2021/06/19 14:33:37;;;;;;;15.02;5.03;;;;;;;;;;5073264;28;20558;-72
2021/06/19 14:36:04;;;;;;;10.43;5.05;;;;;;;;;;5073020;28;20024;-72
2021/06/19 14:38:31;;;;;;;7.78;4.72;;;;;;;;;;5070029;28;20354;-71